Time;durP1;ratioP1;P1;durP2;ratioP2;P2;SDS_P1;SDS_P2;PMS_P1;PMS_P2;Temp;Humidity;BMP_temperature;BMP_pressure;BME280_temperature;BME280_humidity;BME280_pressure;Samples;Min_cycle;Max_cycle;Signal;HPM_P1;HPM_P2
2021/07/16 00:01:03;;;;;;;7.78;7.05;;;;;;;;;;4937376;29;20250;-91
2021/07/16 00:03:46;;;;;;;10.20;8.43;;;;;;;;;;4937883;29;20207;-91
2021/07/16 00:07:09;;;;;;;8.93;8.15;;;;;;;;;;4937446;29;20269;-91
2021/07/16 00:09:59;;;;;;;9.10;7.97;;;;;;;;;;4937567;29;20596;-91
2021/07/16 00:12:38;;;;;;;9.90;8.75;;;;;;;;;;4937133;29;20828;-90
2021/07/16 00:16:20;;;;;;;9.10;8.25;;;;;;;;;;4937613;29;20198;-91
2021/07/16 00:18:55;;;;;;;10.75;8.48;;;;;;;;;;4937164;29;20209;-91
2021/07/16 00:21:39;;;;;;;11.80;10.55;;;;;;;;;;4937191;29;20201;-90
2021/07/16 00:24:41;;;;;;;13.43;10.55;;;;;;;;;;4937260;29;20202;-91
2021/07/16 00:27:35;;;;;;;12.85;9.45;;;;;;;;;;4937002;29;20212;-91
2021/07/16 00:30:09;;;;;;;9.77;8.88;;;;;;;;;;4936936;29;20921;-91
2021/07/16 00:33:18;;;;;;;10.85;9.80;;;;;;;;;;4937166;29;20212;-90
2021/07/16 00:35:52;;;;;;;11.10;9.93;;;;;;;;;;4936893;29;20212;-90
2021/07/16 00:38:25;;;;;;;9.82;8.93;;;;;;;;;;4937011;29;20284;-90
2021/07/16 00:41:39;;;;;;;8.98;8.07;;;;;;;;;;4936308;29;20237;-90
2021/07/16 00:44:21;;;;;;;7.93;7.22;;;;;;;;;;4937100;29;20229;-91
2021/07/16 00:47:30;;;;;;;7.40;6.45;;;;;;;;;;4946886;28;20737;-91
2021/07/16 00:49:58;;;;;;;5.97;5.30;;;;;;;;;;4955753;28;20221;-91
2021/07/16 00:53:09;;;;;;;7.35;6.55;;;;;;;;;;4955576;28;20890;-91
2021/07/16 00:55:53;;;;;;;9.52;8.63;;;;;;;;;;4956004;28;20643;-91
2021/07/16 00:58:52;;;;;;;11.23;10.13;;;;;;;;;;4955973;29;20200;-90
2021/07/16 01:01:25;;;;;;;11.35;10.25;;;;;;;;;;4955665;29;20228;-90
2021/07/16 01:04:20;;;;;;;12.43;10.18;;;;;;;;;;4956066;28;20276;-90
2021/07/16 01:06:56;;;;;;;11.73;9.30;;;;;;;;;;4954951;28;20283;-91
2021/07/16 01:09:31;;;;;;;8.77;7.88;;;;;;;;;;4955645;28;20654;-91
2021/07/16 01:12:20;;;;;;;11.88;10.52;;;;;;;;;;4955554;28;20205;-90
2021/07/16 01:15:45;;;;;;;10.10;8.85;;;;;;;;;;4955446;29;20268;-90
2021/07/16 01:18:54;;;;;;;8.18;7.47;;;;;;;;;;4955495;29;20272;-91
2021/07/16 01:21:29;;;;;;;10.52;9.50;;;;;;;;;;4955152;29;20224;-90
2021/07/16 01:23:58;;;;;;;11.13;10.13;;;;;;;;;;4955513;29;20192;-91
2021/07/16 01:26:36;;;;;;;11.13;10.13;;;;;;;;;;4954839;29;20609;-90
2021/07/16 01:29:29;;;;;;;13.70;12.30;;;;;;;;;;4955194;28;20223;-91
2021/07/16 01:32:24;;;;;;;12.65;11.35;;;;;;;;;;4954959;29;20215;-90
2021/07/16 01:34:54;;;;;;;12.70;11.43;;;;;;;;;;4955432;29;20288;-90
2021/07/16 01:37:52;;;;;;;14.60;13.13;;;;;;;;;;4955101;29;20245;-91
2021/07/16 01:40:39;;;;;;;13.00;11.68;;;;;;;;;;4954845;28;20239;-91
2021/07/16 01:43:49;;;;;;;13.95;11.95;;;;;;;;;;4955259;29;20279;-91
2021/07/16 01:46:16;;;;;;;11.38;10.27;;;;;;;;;;4955035;28;20240;-91
2021/07/16 01:49:16;;;;;;;14.82;13.30;;;;;;;;;;4955253;29;20649;-91
2021/07/16 01:51:57;;;;;;;13.60;12.25;;;;;;;;;;4955095;29;20232;-91
2021/07/16 01:54:28;;;;;;;12.52;11.35;;;;;;;;;;4955080;29;20231;-91
2021/07/16 01:56:59;;;;;;;17.27;15.57;;;;;;;;;;4954819;29;20209;-90
2021/07/16 01:59:40;;;;;;;13.82;12.52;;;;;;;;;;4954976;28;20248;-90
2021/07/16 02:02:35;;;;;;;14.70;13.25;;;;;;;;;;4954969;29;20215;-90
2021/07/16 02:05:09;;;;;;;15.35;13.95;;;;;;;;;;4954698;29;20636;-90
2021/07/16 02:07:50;;;;;;;15.13;13.65;;;;;;;;;;4954692;28;20224;-90
2021/07/16 02:10:34;;;;;;;16.55;13.60;;;;;;;;;;4954681;28;20596;-90
2021/07/16 02:13:13;;;;;;;15.98;14.32;;;;;;;;;;4954749;29;20260;-90
2021/07/16 02:15:55;;;;;;;14.57;13.13;;;;;;;;;;4954531;29;20204;-90
2021/07/16 02:18:27;;;;;;;14.95;13.40;;;;;;;;;;4956027;28;20200;-90
2021/07/16 02:20:59;;;;;;;15.15;13.75;;;;;;;;;;4958255;28;20256;-89
2021/07/16 02:23:45;;;;;;;18.33;14.48;;;;;;;;;;4958387;29;20712;-90
2021/07/16 02:26:29;;;;;;;12.90;11.60;;;;;;;;;;4959078;28;20300;-89
2021/07/16 02:29:01;;;;;;;13.45;12.10;;;;;;;;;;4959440;28;20691;-90
2021/07/16 02:31:29;;;;;;;12.40;9.82;;;;;;;;;;4959776;28;20208;-90
2021/07/16 02:34:13;;;;;;;13.35;12.07;;;;;;;;;;4977604;28;20291;-90
2021/07/16 02:36:53;;;;;;;16.92;11.80;;;;;;;;;;4977930;28;20274;-90
2021/07/16 02:39:34;;;;;;;11.25;10.25;;;;;;;;;;4977586;28;20767;-90
2021/07/16 02:42:14;;;;;;;12.80;11.70;;;;;;;;;;4977431;28;20655;-90
2021/07/16 02:44:55;;;;;;;12.00;10.88;;;;;;;;;;4978089;28;20204;-89
2021/07/16 02:47:23;;;;;;;13.43;11.13;;;;;;;;;;4977429;28;20323;-91
2021/07/16 02:49:55;;;;;;;13.35;12.02;;;;;;;;;;4977293;28;20319;-89
2021/07/16 02:52:25;;;;;;;11.40;10.30;;;;;;;;;;4978296;28;20235;-89
2021/07/16 02:54:52;;;;;;;13.38;12.07;;;;;;;;;;4977470;28;20216;-90
2021/07/16 02:57:38;;;;;;;11.73;10.65;;;;;;;;;;4977022;28;20205;-89
2021/07/16 03:00:27;;;;;;;14.18;11.38;;;;;;;;;;4976461;28;20228;-89
2021/07/16 03:03:02;;;;;;;12.55;11.32;;;;;;;;;;4957676;28;20296;-90
2021/07/16 03:05:31;;;;;;;12.07;10.98;;;;;;;;;;4957880;29;20539;-88
2021/07/16 03:08:00;;;;;;;12.05;10.93;;;;;;;;;;4957708;29;20194;-88
2021/07/16 03:10:32;;;;;;;12.40;11.10;;;;;;;;;;4957472;28;20224;-89
2021/07/16 03:13:01;;;;;;;11.93;10.85;;;;;;;;;;4957446;29;20188;-88
2021/07/16 03:15:31;;;;;;;13.80;10.88;;;;;;;;;;4957433;29;20198;-88
2021/07/16 03:18:07;;;;;;;11.90;10.75;;;;;;;;;;4957651;29;20288;-88
2021/07/16 03:20:37;;;;;;;10.75;9.65;;;;;;;;;;4957635;29;20229;-89
2021/07/16 03:23:07;;;;;;;11.95;10.75;;;;;;;;;;4957571;29;20191;-88
2021/07/16 03:25:39;;;;;;;12.32;10.25;;;;;;;;;;4957861;28;20219;-89
2021/07/16 03:28:11;;;;;;;10.57;9.40;;;;;;;;;;4957545;29;20288;-89
2021/07/16 03:30:42;;;;;;;11.57;10.32;;;;;;;;;;4956933;28;20260;-89
2021/07/16 03:33:10;;;;;;;11.05;9.77;;;;;;;;;;4971556;28;20255;-89
2021/07/16 03:35:47;;;;;;;12.40;11.20;;;;;;;;;;4977178;28;20228;-89
2021/07/16 03:38:26;;;;;;;18.10;14.63;;;;;;;;;;4976698;28;20184;-89
2021/07/16 03:41:00;;;;;;;14.98;13.07;;;;;;;;;;4976362;28;20220;-89
2021/07/16 03:43:30;;;;;;;13.50;11.63;;;;;;;;;;4976772;28;20209;-89
2021/07/16 03:45:59;;;;;;;11.88;10.68;;;;;;;;;;4976674;28;20232;-89
2021/07/16 03:48:27;;;;;;;13.43;11.40;;;;;;;;;;4976399;28;20204;-89
2021/07/16 03:50:57;;;;;;;13.50;12.02;;;;;;;;;;4976611;28;20240;-88
2021/07/16 03:53:25;;;;;;;19.55;12.82;;;;;;;;;;4976644;28;20628;-88
2021/07/16 03:56:00;;;;;;;13.82;12.43;;;;;;;;;;4976487;28;20224;-89
2021/07/16 03:58:35;;;;;;;13.75;11.40;;;;;;;;;;4976453;28;20556;-89
2021/07/16 04:01:04;;;;;;;13.65;12.43;;;;;;;;;;4976291;28;20224;-89
2021/07/16 04:03:38;;;;;;;12.98;11.70;;;;;;;;;;4976645;28;20582;-89
2021/07/16 04:06:15;;;;;;;13.90;12.57;;;;;;;;;;4976433;28;20212;-89
2021/07/16 04:08:44;;;;;;;14.05;12.65;;;;;;;;;;4976423;28;20215;-89
2021/07/16 04:11:19;;;;;;;14.70;13.20;;;;;;;;;;4976401;28;20240;-89
2021/07/16 04:13:50;;;;;;;16.17;14.32;;;;;;;;;;4976375;28;20203;-89
2021/07/16 04:16:21;;;;;;;16.30;14.07;;;;;;;;;;4976325;28;20290;-89
2021/07/16 04:19:05;;;;;;;15.90;13.02;;;;;;;;;;4976200;28;20189;-89
2021/07/16 04:21:34;;;;;;;16.50;14.70;;;;;;;;;;4976170;28;20212;-89
2021/07/16 04:24:01;;;;;;;15.10;12.93;;;;;;;;;;4976061;28;20232;-89
2021/07/16 04:26:32;;;;;;;12.93;11.70;;;;;;;;;;4975278;28;20273;-90
2021/07/16 04:29:07;;;;;;;12.90;11.73;;;;;;;;;;4976007;28;20208;-89
2021/07/16 04:31:56;;;;;;;14.65;12.23;;;;;;;;;;4975795;28;20180;-89
2021/07/16 04:34:26;;;;;;;12.85;11.55;;;;;;;;;;4976028;28;20227;-89
2021/07/16 04:36:56;;;;;;;13.63;12.07;;;;;;;;;;4975894;28;20632;-89
2021/07/16 04:39:25;;;;;;;11.80;10.63;;;;;;;;;;4975522;28;20213;-89
2021/07/16 04:41:55;;;;;;;12.25;11.00;;;;;;;;;;4974444;28;20283;-89
2021/07/16 04:44:23;;;;;;;11.15;10.02;;;;;;;;;;4975371;28;20196;-89
2021/07/16 04:46:53;;;;;;;14.60;12.88;;;;;;;;;;4975189;28;20228;-89
2021/07/16 04:49:30;;;;;;;11.77;10.63;;;;;;;;;;4976104;28;20258;-89
2021/07/16 04:52:01;;;;;;;12.15;10.98;;;;;;;;;;4975582;28;20286;-88
2021/07/16 04:54:34;;;;;;;11.20;9.88;;;;;;;;;;4975518;28;20177;-89
2021/07/16 04:57:03;;;;;;;12.00;10.25;;;;;;;;;;4975434;28;20204;-89
2021/07/16 04:59:50;;;;;;;11.38;10.10;;;;;;;;;;4975237;28;20282;-90
2021/07/16 05:02:19;;;;;;;11.05;9.85;;;;;;;;;;4974933;28;20227;-89
2021/07/16 05:04:50;;;;;;;11.73;10.00;;;;;;;;;;4975401;28;20248;-89
2021/07/16 05:07:23;;;;;;;12.18;10.32;;;;;;;;;;4995452;23;20276;-92
2021/07/16 05:10:03;;;;;;;13.68;10.43;;;;;;;;;;4974013;28;20223;-91
2021/07/16 05:12:45;;;;;;;10.95;9.00;;;;;;;;;;4954541;29;20272;-91
2021/07/16 05:15:20;;;;;;;12.30;11.05;;;;;;;;;;4955141;29;20204;-91
2021/07/16 05:17:49;;;;;;;11.55;10.40;;;;;;;;;;4954448;29;20307;-91
2021/07/16 05:20:19;;;;;;;10.65;9.55;;;;;;;;;;4954487;29;20276;-91
2021/07/16 05:22:55;;;;;;;11.43;9.50;;;;;;;;;;4954087;29;20228;-90
2021/07/16 05:25:24;;;;;;;11.13;9.32;;;;;;;;;;4956039;28;20207;-90
2021/07/16 05:27:57;;;;;;;10.77;9.43;;;;;;;;;;4961229;28;20243;-91
2021/07/16 05:30:25;;;;;;;11.73;10.15;;;;;;;;;;4972719;28;20196;-91
2021/07/16 05:32:59;;;;;;;11.27;10.25;;;;;;;;;;4973369;28;20256;-92
2021/07/16 05:35:33;;;;;;;11.48;10.38;;;;;;;;;;4972819;28;20722;-92
2021/07/16 05:38:09;;;;;;;11.13;10.02;;;;;;;;;;4973211;28;20235;-91
2021/07/16 05:40:38;;;;;;;10.65;9.63;;;;;;;;;;4973119;28;20273;-91
2021/07/16 05:43:13;;;;;;;9.95;9.05;;;;;;;;;;4972525;28;20224;-91
2021/07/16 05:45:47;;;;;;;12.60;9.88;;;;;;;;;;4973358;28;20216;-90
2021/07/16 05:48:21;;;;;;;9.70;8.63;;;;;;;;;;4974247;28;20224;-92
2021/07/16 05:50:50;;;;;;;9.07;8.18;;;;;;;;;;4974228;28;20235;-91
2021/07/16 05:53:29;;;;;;;11.90;9.98;;;;;;;;;;4973545;28;20280;-92
2021/07/16 05:55:58;;;;;;;10.13;7.93;;;;;;;;;;4973973;28;20211;-90
2021/07/16 05:58:25;;;;;;;8.85;7.78;;;;;;;;;;4974156;28;20227;-91
2021/07/16 06:01:05;;;;;;;11.40;9.13;;;;;;;;;;4973871;28;20210;-91
2021/07/16 06:03:48;;;;;;;8.57;7.75;;;;;;;;;;4973680;28;20307;-92
2021/07/16 06:06:22;;;;;;;7.57;6.78;;;;;;;;;;4973701;28;20188;-91
2021/07/16 06:08:51;;;;;;;9.63;8.73;;;;;;;;;;4974067;28;20235;-91
2021/07/16 06:11:38;;;;;;;9.55;7.97;;;;;;;;;;4976400;28;20813;-91
2021/07/16 06:14:06;;;;;;;7.55;6.95;;;;;;;;;;4975360;28;20184;-90
2021/07/16 06:16:36;;;;;;;8.45;6.85;;;;;;;;;;4975835;28;20239;-92
2021/07/16 06:19:08;;;;;;;8.50;7.45;;;;;;;;;;4973792;28;20196;-91
2021/07/16 06:21:53;;;;;;;5.28;4.82;;;;;;;;;;4973947;28;20200;-89
2021/07/16 06:24:22;;;;;;;10.10;6.78;;;;;;;;;;4973414;28;20228;-90
2021/07/16 06:26:52;;;;;;;7.60;6.18;;;;;;;;;;4974203;28;20295;-91
2021/07/16 06:29:28;;;;;;;7.07;6.35;;;;;;;;;;4973684;28;20271;-91
2021/07/16 06:32:33;;;;;;;6.93;6.22;;;;;;;;;;4992876;28;20206;-92
2021/07/16 06:35:01;;;;;;;6.63;6.03;;;;;;;;;;4993938;28;20212;-93
2021/07/16 06:37:33;;;;;;;6.47;5.88;;;;;;;;;;4993058;28;20601;-92
2021/07/16 06:40:09;;;;;;;8.90;7.40;;;;;;;;;;4993686;28;20274;-92
2021/07/16 06:42:43;;;;;;;6.00;5.38;;;;;;;;;;4993821;28;20222;-91
2021/07/16 06:45:25;;;;;;;7.30;6.18;;;;;;;;;;4987083;28;20184;-93
2021/07/16 06:48:33;;;;;;;6.53;5.90;;;;;;;;;;4973088;28;20308;-92
2021/07/16 06:51:09;;;;;;;6.95;6.32;;;;;;;;;;4973766;28;20196;-92
2021/07/16 06:53:39;;;;;;;7.40;5.63;;;;;;;;;;4973685;28;20199;-91
2021/07/16 06:56:09;;;;;;;7.10;6.35;;;;;;;;;;4973483;28;20260;-92
2021/07/16 06:58:40;;;;;;;6.95;5.93;;;;;;;;;;4973352;28;20240;-92
2021/07/16 07:01:09;;;;;;;6.43;5.85;;;;;;;;;;4973125;28;20203;-91
2021/07/16 07:03:38;;;;;;;5.82;4.55;;;;;;;;;;4973040;28;20240;-90
2021/07/16 07:06:07;;;;;;;6.40;5.80;;;;;;;;;;4975446;28;20189;-90
2021/07/16 07:08:35;;;;;;;6.85;5.85;;;;;;;;;;4975105;28;20247;-91
2021/07/16 07:11:29;;;;;;;5.78;5.10;;;;;;;;;;4976582;28;20674;-92
2021/07/16 07:13:58;;;;;;;6.38;5.75;;;;;;;;;;4977101;28;20288;-94
2021/07/16 07:16:35;;;;;;;7.38;6.43;;;;;;;;;;4991772;28;20202;-94
2021/07/16 07:19:04;;;;;;;7.82;7.07;;;;;;;;;;4998779;28;20268;-91
2021/07/16 07:21:32;;;;;;;7.18;6.18;;;;;;;;;;4986278;28;20204;-93
2021/07/16 07:23:59;;;;;;;6.93;6.18;;;;;;;;;;4977846;28;20757;-91
2021/07/16 07:26:32;;;;;;;7.05;6.35;;;;;;;;;;4979621;28;20645;-92
2021/07/16 07:29:17;;;;;;;7.18;6.55;;;;;;;;;;4978584;28;20304;-92
2021/07/16 07:31:57;;;;;;;6.43;5.82;;;;;;;;;;4978180;28;20204;-93
2021/07/16 07:34:32;;;;;;;7.38;5.55;;;;;;;;;;4978442;28;20201;-93
2021/07/16 07:37:01;;;;;;;6.70;5.75;;;;;;;;;;4985630;28;20247;-90
2021/07/16 07:39:30;;;;;;;7.82;6.57;;;;;;;;;;4996526;28;20196;-90
2021/07/16 07:42:03;;;;;;;6.82;5.40;;;;;;;;;;4996071;28;20740;-91
2021/07/16 07:44:31;;;;;;;7.00;6.07;;;;;;;;;;4995281;28;20232;-90
2021/07/16 07:47:01;;;;;;;7.72;6.60;;;;;;;;;;4995053;28;20255;-92
2021/07/16 07:49:33;;;;;;;5.85;5.32;;;;;;;;;;4995730;28;20195;-91
2021/07/16 07:52:01;;;;;;;5.95;5.00;;;;;;;;;;4995847;28;20218;-92
2021/07/16 07:54:30;;;;;;;6.93;6.28;;;;;;;;;;4995276;28;20274;-91
2021/07/16 07:57:20;;;;;;;6.63;5.18;;;;;;;;;;4996250;28;20224;-91
2021/07/16 07:59:49;;;;;;;7.95;6.05;;;;;;;;;;4996680;28;20212;-92
2021/07/16 08:02:24;;;;;;;6.93;6.32;;;;;;;;;;4998240;28;20223;-92
2021/07/16 08:04:52;;;;;;;7.53;5.88;;;;;;;;;;4995806;28;20209;-90
2021/07/16 08:07:21;;;;;;;6.22;5.63;;;;;;;;;;4995275;28;20230;-91
2021/07/16 08:09:57;;;;;;;5.53;5.03;;;;;;;;;;4994918;28;20318;-90
2021/07/16 08:12:29;;;;;;;4.65;4.25;;;;;;;;;;4994888;28;20279;-92
2021/07/16 08:14:57;;;;;;;6.30;4.68;;;;;;;;;;4996302;28;20200;-92
2021/07/16 08:17:25;;;;;;;6.82;6.15;;;;;;;;;;4994815;28;20227;-92
2021/07/16 08:19:53;;;;;;;5.28;4.78;;;;;;;;;;4995019;28;20199;-92
2021/07/16 08:22:21;;;;;;;5.90;5.30;;;;;;;;;;4995061;28;20223;-91
2021/07/16 08:24:51;;;;;;;5.63;4.47;;;;;;;;;;4994860;28;20220;-91
2021/07/16 08:27:21;;;;;;;5.68;4.63;;;;;;;;;;4995035;28;20315;-92
2021/07/16 08:29:50;;;;;;;6.22;5.68;;;;;;;;;;4995997;28;20207;-89
2021/07/16 08:32:43;;;;;;;6.20;5.60;;;;;;;;;;4995469;28;20212;-91
2021/07/16 08:35:17;;;;;;;5.55;5.05;;;;;;;;;;4995268;28;20224;-91
2021/07/16 08:37:47;;;;;;;5.90;4.85;;;;;;;;;;4983574;28;20247;-91
2021/07/16 08:40:16;;;;;;;5.38;4.95;;;;;;;;;;4994373;28;20187;-92
2021/07/16 08:42:49;;;;;;;5.35;4.82;;;;;;;;;;4995537;28;20199;-91
2021/07/16 08:45:29;;;;;;;5.28;4.78;;;;;;;;;;4995394;28;20224;-91
2021/07/16 08:47:57;;;;;;;4.88;4.47;;;;;;;;;;4995764;28;20286;-92
2021/07/16 08:50:39;;;;;;;4.88;4.38;;;;;;;;;;4995415;28;20279;-92
2021/07/16 08:53:37;;;;;;;4.72;4.30;;;;;;;;;;4995246;28;20230;-93
2021/07/16 08:56:08;;;;;;;4.70;4.30;;;;;;;;;;4994961;28;20681;-92
2021/07/16 08:58:36;;;;;;;4.78;4.28;;;;;;;;;;5522034;23;20240;-92
2021/07/16 09:01:07;;;;;;;4.13;3.83;;;;;;;;;;4974783;28;20207;-92
2021/07/16 09:03:59;;;;;;;5.47;4.15;;;;;;;;;;4975125;28;20271;-91
2021/07/16 09:06:50;;;;;;;6.70;4.40;;;;;;;;;;4974691;28;20569;-89
2021/07/16 09:09:48;;;;;;;4.15;3.75;;;;;;;;;;4955450;29;20208;-90
2021/07/16 09:12:38;;;;;;;5.85;5.35;;;;;;;;;;4955484;29;20201;-91
2021/07/16 09:15:51;;;;;;;4.45;4.13;;;;;;;;;;4955349;29;20576;-91
2021/07/16 09:18:49;;;;;;;6.20;5.60;;;;;;;;;;4955277;28;20268;-89
2021/07/16 09:21:22;;;;;;;6.20;5.63;;;;;;;;;;4955382;29;20647;-91
2021/07/16 09:23:55;;;;;;;4.90;4.50;;;;;;;;;;4955035;29;20195;-90
2021/07/16 09:26:25;;;;;;;5.10;4.60;;;;;;;;;;4954885;29;20203;-90
2021/07/16 09:28:56;;;;;;;7.50;4.90;;;;;;;;;;4955447;28;20240;-90
2021/07/16 09:31:27;;;;;;;5.53;5.03;;;;;;;;;;4953936;29;20208;-90
2021/07/16 09:34:36;;;;;;;6.10;4.85;;;;;;;;;;4954661;29;20197;-90
2021/07/16 09:37:11;;;;;;;5.32;4.82;;;;;;;;;;4954335;28;20312;-90
2021/07/16 09:39:48;;;;;;;6.28;5.40;;;;;;;;;;4955850;29;20212;-90
2021/07/16 09:42:21;;;;;;;4.15;3.85;;;;;;;;;;4956425;29;20547;-90
2021/07/16 09:45:00;;;;;;;4.45;3.88;;;;;;;;;;4956146;29;20229;-91
2021/07/16 09:47:31;;;;;;;4.82;4.30;;;;;;;;;;4948866;29;20744;-90
2021/07/16 09:50:12;;;;;;;4.85;4.35;;;;;;;;;;4954598;29;20215;-91
2021/07/16 09:52:47;;;;;;;5.00;4.32;;;;;;;;;;4954579;29;20618;-91
2021/07/16 09:55:20;;;;;;;5.72;5.22;;;;;;;;;;4955346;29;20200;-91
2021/07/16 09:58:23;;;;;;;6.22;5.18;;;;;;;;;;4954980;29;20279;-89
2021/07/16 10:01:13;;;;;;;5.40;4.95;;;;;;;;;;4954844;28;20236;-90
2021/07/16 10:04:00;;;;;;;4.97;4.57;;;;;;;;;;4954929;29;20200;-89
2021/07/16 10:06:35;;;;;;;4.20;3.70;;;;;;;;;;4944594;29;20209;-91
2021/07/16 10:09:12;;;;;;;4.00;3.63;;;;;;;;;;4954056;29;20224;-90
2021/07/16 10:11:48;;;;;;;5.07;4.57;;;;;;;;;;4935644;29;20273;-91
2021/07/16 10:14:25;;;;;;;5.57;5.07;;;;;;;;;;4935647;29;20205;-89
2021/07/16 10:17:03;;;;;;;6.57;6.07;;;;;;;;;;4945966;29;20205;-89
2021/07/16 10:19:32;;;;;;;5.25;4.75;;;;;;;;;;4938701;29;20193;-88
2021/07/16 10:22:01;;;;;;;5.50;5.05;;;;;;;;;;4944626;29;20197;-89
2021/07/16 10:24:29;;;;;;;5.70;5.20;;;;;;;;;;4953699;29;20847;-88
2021/07/16 10:26:58;;;;;;;4.90;4.47;;;;;;;;;;4953817;28;20189;-88
2021/07/16 10:29:38;;;;;;;5.03;4.55;;;;;;;;;;4954092;29;20196;-88
2021/07/16 10:32:11;;;;;;;6.57;5.47;;;;;;;;;;4953676;29;20208;-89
2021/07/16 10:34:40;;;;;;;5.50;5.00;;;;;;;;;;4953981;29;20178;-88
2021/07/16 10:37:12;;;;;;;5.88;4.70;;;;;;;;;;4953118;28;20223;-89
2021/07/16 10:39:52;;;;;;;6.47;5.13;;;;;;;;;;4954098;28;20260;-88
2021/07/16 10:42:46;;;;;;;7.00;5.15;;;;;;;;;;4957724;29;20200;-89
2021/07/16 10:45:36;;;;;;;5.40;4.60;;;;;;;;;;4958316;29;20242;-89
2021/07/16 10:48:18;;;;;;;5.50;5.00;;;;;;;;;;4957946;28;20225;-88
2021/07/16 10:50:55;;;;;;;6.35;5.75;;;;;;;;;;4958115;29;20201;-88
2021/07/16 10:54:14;;;;;;;6.90;5.63;;;;;;;;;;4957833;29;20296;-89
2021/07/16 11:19:06;;;;;;;6.25;5.20;;;;;;;;;;4979001;23;20601;-89
2021/07/16 11:22:04;;;;;;;4.10;3.70;;;;;;;;;;4944824;28;20196;-89
2021/07/16 11:24:46;;;;;;;4.85;4.40;;;;;;;;;;4926848;29;20260;-90
2021/07/16 11:27:30;;;;;;;5.15;4.03;;;;;;;;;;4939939;29;20638;-91
2021/07/16 11:30:05;;;;;;;7.60;4.75;;;;;;;;;;4956807;29;20279;-92
2021/07/16 11:32:34;;;;;;;4.35;3.95;;;;;;;;;;4957530;29;20252;-87
2021/07/16 11:35:07;;;;;;;5.47;4.97;;;;;;;;;;4957386;29;20675;-87
2021/07/16 11:37:37;;;;;;;4.95;4.55;;;;;;;;;;4956547;29;20221;-86
2021/07/16 11:40:09;;;;;;;4.35;3.95;;;;;;;;;;4954855;29;20947;-87
2021/07/16 11:42:39;;;;;;;6.20;4.20;;;;;;;;;;4957363;29;20201;-86
2021/07/16 11:45:11;;;;;;;5.35;4.55;;;;;;;;;;4956949;29;20189;-87
2021/07/16 11:47:40;;;;;;;4.63;4.22;;;;;;;;;;4956450;29;20562;-90
2021/07/16 11:50:11;;;;;;;4.85;4.40;;;;;;;;;;4956753;29;20204;-86
2021/07/16 11:52:48;;;;;;;4.57;4.18;;;;;;;;;;4956391;28;20211;-88
2021/07/16 11:55:21;;;;;;;4.28;3.97;;;;;;;;;;4956396;29;20242;-88
2021/07/16 11:57:52;;;;;;;5.03;4.63;;;;;;;;;;4956182;28;20216;-86
2021/07/16 12:00:24;;;;;;;4.68;4.20;;;;;;;;;;4956779;29;20205;-87
2021/07/16 12:02:59;;;;;;;4.50;4.15;;;;;;;;;;4956564;29;20178;-87
2021/07/16 12:05:28;;;;;;;4.95;4.53;;;;;;;;;;4958322;29;20196;-88
2021/07/16 12:07:58;;;;;;;4.75;4.35;;;;;;;;;;4956392;28;20676;-87
2021/07/16 12:10:36;;;;;;;5.85;5.38;;;;;;;;;;4941629;29;20562;-88
2021/07/16 12:13:10;;;;;;;6.10;5.53;;;;;;;;;;4955032;29;20581;-87
2021/07/16 12:15:38;;;;;;;6.22;5.63;;;;;;;;;;4956651;29;20192;-88
2021/07/16 12:18:09;;;;;;;5.45;4.95;;;;;;;;;;4955838;28;20239;-87
2021/07/16 12:20:40;;;;;;;6.25;5.63;;;;;;;;;;4955894;29;20212;-86
2021/07/16 12:23:10;;;;;;;4.60;4.25;;;;;;;;;;4956380;29;20185;-87
2021/07/16 12:25:40;;;;;;;5.43;4.82;;;;;;;;;;4956144;29;20525;-89
2021/07/16 12:28:10;;;;;;;7.47;6.65;;;;;;;;;;4936814;29;20224;-88
2021/07/16 12:30:46;;;;;;;8.13;6.30;;;;;;;;;;4953258;29;20644;-87
2021/07/16 12:33:22;;;;;;;6.60;6.03;;;;;;;;;;4956086;29;20192;-88
2021/07/16 12:36:25;;;;;;;5.10;4.53;;;;;;;;;;4953071;29;20204;-88
2021/07/16 12:39:20;;;;;;;4.95;4.55;;;;;;;;;;4955872;29;20231;-88
2021/07/16 12:41:49;;;;;;;5.97;5.40;;;;;;;;;;4936615;29;20197;-88
2021/07/16 12:44:17;;;;;;;7.05;6.45;;;;;;;;;;4936497;29;20197;-88
2021/07/16 12:46:59;;;;;;;7.15;6.28;;;;;;;;;;4944220;28;20264;-88
2021/07/16 12:49:26;;;;;;;6.50;5.07;;;;;;;;;;4955899;29;20189;-88
2021/07/16 12:51:55;;;;;;;6.75;6.15;;;;;;;;;;4955476;29;20215;-88
2021/07/16 12:54:34;;;;;;;7.57;6.88;;;;;;;;;;4954061;29;20204;-88
2021/07/16 12:57:24;;;;;;;7.15;6.45;;;;;;;;;;4955216;28;20229;-88
2021/07/16 12:59:57;;;;;;;7.38;6.72;;;;;;;;;;4955549;29;20264;-87
2021/07/16 13:02:26;;;;;;;7.68;7.03;;;;;;;;;;4954994;28;20264;-88
2021/07/16 13:05:05;;;;;;;6.53;5.93;;;;;;;;;;4954912;29;20729;-88
2021/07/16 13:07:38;;;;;;;6.10;5.50;;;;;;;;;;4954983;28;20239;-88
2021/07/16 13:10:28;;;;;;;7.70;6.88;;;;;;;;;;4955450;29;20197;-89
2021/07/16 13:13:04;;;;;;;7.82;7.05;;;;;;;;;;4955270;29;20539;-89
2021/07/16 13:15:47;;;;;;;8.38;7.25;;;;;;;;;;4955182;29;20259;-88
2021/07/16 13:18:17;;;;;;;7.95;6.35;;;;;;;;;;4954513;28;20638;-90
2021/07/16 13:20:53;;;;;;;8.00;7.20;;;;;;;;;;4954754;29;20624;-90
2021/07/16 13:23:36;;;;;;;7.95;6.30;;;;;;;;;;4954571;29;20662;-91
2021/07/16 13:26:07;;;;;;;6.38;5.78;;;;;;;;;;4955081;29;20215;-89
2021/07/16 13:28:46;;;;;;;8.00;7.00;;;;;;;;;;4941499;29;20214;-89
2021/07/16 13:31:16;;;;;;;7.32;6.70;;;;;;;;;;4954004;29;20224;-89
2021/07/16 13:33:45;;;;;;;8.10;6.10;;;;;;;;;;4956098;29;20208;-89
2021/07/16 13:36:22;;;;;;;9.68;7.75;;;;;;;;;;4954800;29;20192;-89
2021/07/16 13:38:51;;;;;;;9.75;7.97;;;;;;;;;;4954561;28;20220;-89
2021/07/16 13:41:20;;;;;;;8.70;7.35;;;;;;;;;;4953611;29;20201;-89
2021/07/16 13:43:55;;;;;;;11.70;7.63;;;;;;;;;;4954327;29;20197;-88
2021/07/16 13:46:30;;;;;;;8.48;6.88;;;;;;;;;;4939281;29;20209;-89
2021/07/16 13:48:59;;;;;;;7.68;6.97;;;;;;;;;;4951163;29;20273;-89
2021/07/16 13:51:36;;;;;;;9.80;7.70;;;;;;;;;;4935792;29;20197;-89
2021/07/16 13:54:05;;;;;;;8.77;7.53;;;;;;;;;;4945050;29;20190;-89
2021/07/16 13:56:36;;;;;;;11.45;8.65;;;;;;;;;;4954720;29;20193;-89
2021/07/16 13:59:03;;;;;;;10.20;8.55;;;;;;;;;;4950610;29;20209;-89
2021/07/16 14:01:38;;;;;;;13.75;9.80;;;;;;;;;;4935545;29;20188;-88
2021/07/16 14:04:10;;;;;;;9.80;8.20;;;;;;;;;;4944973;29;20189;-88
2021/07/16 14:06:40;;;;;;;5.97;5.47;;;;;;;;;;4954426;29;20196;-89
2021/07/16 14:09:12;;;;;;;7.90;7.10;;;;;;;;;;4954280;29;20220;-88
2021/07/16 14:11:45;;;;;;;9.38;8.48;;;;;;;;;;4954375;29;20196;-89
2021/07/16 14:14:29;;;;;;;9.85;7.28;;;;;;;;;;4954974;28;20670;-89
2021/07/16 14:16:57;;;;;;;8.85;7.18;;;;;;;;;;4958309;28;20240;-89
2021/07/16 14:19:29;;;;;;;9.93;7.40;;;;;;;;;;4958077;29;20205;-89
2021/07/16 14:21:58;;;;;;;7.93;7.13;;;;;;;;;;4958242;29;20213;-88
2021/07/16 14:24:44;;;;;;;9.85;7.28;;;;;;;;;;4958146;29;20197;-90
2021/07/16 14:27:19;;;;;;;10.32;8.32;;;;;;;;;;4958205;28;20236;-87
2021/07/16 14:29:47;;;;;;;13.05;8.40;;;;;;;;;;4958024;29;20208;-88
2021/07/16 14:32:30;;;;;;;10.95;8.57;;;;;;;;;;4958343;29;20478;-88
2021/07/16 14:35:03;;;;;;;9.43;8.13;;;;;;;;;;4957909;29;20640;-89
2021/07/16 14:37:38;;;;;;;10.63;8.57;;;;;;;;;;4957672;28;20224;-90
2021/07/16 14:40:10;;;;;;;13.48;8.23;;;;;;;;;;4958144;29;20200;-89
2021/07/16 14:42:41;;;;;;;9.25;7.80;;;;;;;;;;4957777;29;20193;-88
2021/07/16 14:45:13;;;;;;;10.88;8.57;;;;;;;;;;4957928;29;20563;-89
2021/07/16 14:47:41;;;;;;;10.15;8.15;;;;;;;;;;4958031;29;20255;-89
2021/07/16 14:50:11;;;;;;;12.90;8.50;;;;;;;;;;4945205;29;20218;-90
2021/07/16 14:52:38;;;;;;;9.18;7.95;;;;;;;;;;4954715;28;20259;-89
2021/07/16 14:55:09;;;;;;;10.23;8.18;;;;;;;;;;4955640;29;20204;-88
2021/07/16 14:57:37;;;;;;;11.52;8.10;;;;;;;;;;4955883;29;20225;-87
2021/07/16 15:00:06;;;;;;;9.90;7.35;;;;;;;;;;4943426;29;20209;-90
2021/07/16 15:02:34;;;;;;;8.52;6.45;;;;;;;;;;4955856;29;20292;-88
2021/07/16 15:05:14;;;;;;;9.35;8.27;;;;;;;;;;4957770;29;20205;-90
2021/07/16 15:07:41;;;;;;;10.32;7.43;;;;;;;;;;4957238;29;20236;-89
2021/07/16 15:10:12;;;;;;;9.50;8.13;;;;;;;;;;4956717;29;20196;-88
2021/07/16 15:12:42;;;;;;;11.52;7.88;;;;;;;;;;4957568;29;20190;-90
2021/07/16 15:15:13;;;;;;;10.88;8.43;;;;;;;;;;4957569;29;20209;-89
2021/07/16 15:17:50;;;;;;;10.88;8.07;;;;;;;;;;4957350;28;20243;-89
2021/07/16 15:20:21;;;;;;;8.45;7.60;;;;;;;;;;4957340;29;20201;-90
2021/07/16 15:23:02;;;;;;;8.30;7.38;;;;;;;;;;4957646;29;20216;-89
2021/07/16 15:25:36;;;;;;;7.75;5.85;;;;;;;;;;4956824;28;20193;-90
2021/07/16 15:28:05;;;;;;;10.85;7.85;;;;;;;;;;4956959;28;20713;-90
2021/07/16 15:30:52;;;;;;;8.48;7.15;;;;;;;;;;4956819;29;20208;-90
2021/07/16 15:33:34;;;;;;;9.85;8.45;;;;;;;;;;4957123;29;20197;-90
2021/07/16 15:36:08;;;;;;;8.73;7.55;;;;;;;;;;4957200;29;20879;-90
2021/07/16 15:38:37;;;;;;;12.30;8.18;;;;;;;;;;4956841;28;20246;-90
2021/07/16 15:41:06;;;;;;;12.45;8.10;;;;;;;;;;4960537;29;20673;-89
2021/07/16 15:43:34;;;;;;;9.93;7.95;;;;;;;;;;4959223;29;20718;-88
2021/07/16 15:46:03;;;;;;;14.15;9.07;;;;;;;;;;4965336;29;20189;-90
2021/07/16 15:48:31;;;;;;;10.77;7.63;;;;;;;;;;4957374;28;20292;-91
2021/07/16 15:51:04;;;;;;;9.23;8.15;;;;;;;;;;4956904;29;20650;-89